Time;durP1;ratioP1;P1;durP2;ratioP2;P2;SDS_P1;SDS_P2;PMS_P1;PMS_P2;Temp;Humidity;BMP_temperature;BMP_pressure;BME280_temperature;BME280_humidity;BME280_pressure;Samples;Min_cycle;Max_cycle;Signal;HPM_P1;HPM_P2
2023/04/11 00:01:51;;;;;;;21.65;11.35;;;;;;;-146.07;100.00;70291.31;10395555;28;20109;-73
2023/04/11 00:06:52;;;;;;;22.35;11.30;;;;;;;-146.07;100.00;70291.31;10414543;28;20039;-69
2023/04/11 00:11:52;;;;;;;21.60;10.60;;;;;;;-146.07;100.00;70291.31;10422872;28;20025;-69
2023/04/11 00:16:54;;;;;;;25.05;12.23;;;;;;;-146.07;100.00;70291.31;10387617;28;20042;-69
2023/04/11 00:21:59;;;;;;;24.88;11.15;;;;;;;-146.07;100.00;70291.31;10394575;28;20609;-70
2023/04/11 00:27:00;;;;;;;21.35;12.18;;;;;;;-146.07;100.00;70291.31;10388256;28;20550;-70
2023/04/11 00:32:00;;;;;;;22.33;11.35;;;;;;;-146.07;100.00;70291.31;10415472;28;20059;-70
2023/04/11 00:37:01;;;;;;;25.27;12.00;;;;;;;-146.07;100.00;70291.31;10427969;28;20032;-70
2023/04/11 00:42:06;;;;;;;23.02;12.25;;;;;;;-146.07;100.00;70291.31;10423750;28;20739;-69
2023/04/11 00:47:07;;;;;;;22.15;11.80;;;;;;;-146.07;100.00;70291.31;10383937;28;20469;-69
2023/04/11 00:52:08;;;;;;;22.85;11.02;;;;;;;-146.07;100.00;70291.31;10401063;28;20025;-68
2023/04/11 00:57:09;;;;;;;15.10;9.77;;;;;;;-146.07;100.00;70291.31;10424068;28;20032;-68
2023/04/11 01:02:09;;;;;;;22.27;11.13;;;;;;;-146.07;100.00;70291.31;10427762;28;20426;-70
2023/04/11 01:07:10;;;;;;;22.17;10.15;;;;;;;-146.07;100.00;70291.31;10425100;28;20087;-70
2023/04/11 01:12:12;;;;;;;21.20;11.63;;;;;;;-146.07;100.00;70291.31;10427178;28;20025;-70
2023/04/11 01:17:14;;;;;;;20.00;10.27;;;;;;;-146.07;100.00;70291.31;10420656;28;20049;-69
2023/04/11 01:22:16;;;;;;;18.30;10.05;;;;;;;-146.07;100.00;70291.31;10425076;28;20076;-70
2023/04/11 01:27:18;;;;;;;22.48;11.43;;;;;;;-146.07;100.00;70291.31;10403197;28;20047;-69
2023/04/11 01:32:18;;;;;;;21.08;11.15;;;;;;;-146.07;100.00;70291.31;10422945;28;20040;-70
2023/04/11 01:37:19;;;;;;;21.40;10.13;;;;;;;-146.07;100.00;70291.31;10417596;28;20028;-70
2023/04/11 01:42:21;;;;;;;21.38;11.27;;;;;;;-146.07;100.00;70291.31;10426501;28;20029;-69
2023/04/11 01:47:22;;;;;;;19.90;10.90;;;;;;;-146.07;100.00;70291.31;10426115;28;20403;-71
2023/04/11 01:52:22;;;;;;;24.90;12.48;;;;;;;-146.07;100.00;70291.31;10417638;28;20480;-70
2023/04/11 01:57:22;;;;;;;24.13;12.23;;;;;;;-146.07;100.00;70291.31;10424814;28;20024;-70
2023/04/11 02:02:24;;;;;;;23.15;11.75;;;;;;;-146.07;100.00;70291.31;10425857;28;20051;-70
2023/04/11 02:07:25;;;;;;;23.48;11.80;;;;;;;-146.07;100.00;70291.31;10426110;28;20031;-70
2023/04/11 02:12:25;;;;;;;21.42;11.15;;;;;;;-146.07;100.00;70291.31;10425804;28;20032;-71
2023/04/11 02:17:29;;;;;;;22.38;12.15;;;;;;;-146.07;100.00;70291.31;10407168;28;20076;-70
2023/04/11 02:22:30;;;;;;;25.38;12.60;;;;;;;-146.07;100.00;70291.31;10407327;28;20033;-70
2023/04/11 02:27:31;;;;;;;24.15;11.80;;;;;;;-146.07;100.00;70291.31;10425349;28;20036;-68
2023/04/11 02:32:39;;;;;;;26.73;12.27;;;;;;;-146.07;100.00;70291.31;10425256;28;20049;-69
2023/04/11 02:37:39;;;;;;;21.80;11.55;;;;;;;-146.07;100.00;70291.31;10424996;28;20120;-70
2023/04/11 02:42:41;;;;;;;20.33;11.77;;;;;;;-146.07;100.00;70291.31;10406851;28;20029;-70
2023/04/11 02:47:42;;;;;;;23.98;12.15;;;;;;;-146.07;100.00;70291.31;10407406;28;20028;-69
2023/04/11 02:52:43;;;;;;;25.83;12.02;;;;;;;-146.07;100.00;70291.31;10424876;28;20021;-69
2023/04/11 02:57:44;;;;;;;25.15;13.15;;;;;;;-146.07;100.00;70291.31;10407092;28;20111;-69
2023/04/11 03:02:44;;;;;;;26.95;13.55;;;;;;;-146.07;100.00;70291.31;10425020;28;20093;-69
2023/04/11 03:07:45;;;;;;;29.02;14.25;;;;;;;-146.07;100.00;70291.31;10406471;28;20036;-68
2023/04/11 03:12:46;;;;;;;29.83;13.98;;;;;;;-146.07;100.00;70291.31;10406279;28;20028;-70
2023/04/11 03:17:47;;;;;;;25.10;13.88;;;;;;;-146.07;100.00;70291.31;10424511;28;20068;-69
2023/04/11 03:22:48;;;;;;;27.80;13.40;;;;;;;-146.07;100.00;70291.31;10415594;28;20034;-70
2023/04/11 03:27:48;;;;;;;29.40;14.52;;;;;;;-146.07;100.00;70291.31;10413658;28;20064;-69
2023/04/11 03:32:49;;;;;;;28.95;14.40;;;;;;;-146.07;100.00;70291.31;10430657;28;20559;-71
2023/04/11 03:37:49;;;;;;;36.55;15.52;;;;;;;-146.07;100.00;70291.31;10431719;28;20036;-69
2023/04/11 03:42:50;;;;;;;30.83;14.35;;;;;;;-146.07;100.00;70291.31;10413772;28;20086;-69
2023/04/11 03:47:50;;;;;;;23.80;12.95;;;;;;;-146.07;100.00;70291.31;10430241;28;20028;-69
2023/04/11 03:52:51;;;;;;;35.25;17.30;;;;;;;-146.07;100.00;70291.31;10430086;28;20394;-69
2023/04/11 03:57:51;;;;;;;32.78;14.40;;;;;;;-146.07;100.00;70291.31;10430665;28;20021;-69
2023/04/11 04:02:52;;;;;;;30.23;15.15;;;;;;;-146.07;100.00;70291.31;10427999;28;20123;-69
2023/04/11 04:07:52;;;;;;;29.50;14.32;;;;;;;-146.07;100.00;70291.31;10429955;28;20025;-69
2023/04/11 04:12:53;;;;;;;29.38;14.85;;;;;;;-146.07;100.00;70291.31;10429814;28;20023;-69
2023/04/11 04:17:53;;;;;;;30.35;15.13;;;;;;;-146.07;100.00;70291.31;10428588;28;20045;-69
2023/04/11 04:22:54;;;;;;;33.38;14.98;;;;;;;-146.07;100.00;70291.31;10411539;28;20361;-69
2023/04/11 04:27:56;;;;;;;35.92;16.88;;;;;;;-146.07;100.00;70291.31;10429425;28;20031;-69
2023/04/11 04:32:59;;;;;;;32.13;17.38;;;;;;;-146.07;100.00;70291.31;10411077;28;20028;-69
2023/04/11 04:38:05;;;;;;;28.38;15.27;;;;;;;-146.07;100.00;70291.31;10427503;28;20029;-69
2023/04/11 04:43:10;;;;;;;36.13;16.55;;;;;;;-146.07;100.00;70291.31;10403848;28;20017;-71
2023/04/11 04:48:14;;;;;;;35.38;18.13;;;;;;;-146.07;100.00;70291.31;10392449;28;20029;-71
2023/04/11 04:53:15;;;;;;;33.22;17.50;;;;;;;-146.07;100.00;70291.31;10421709;28;20029;-69
2023/04/11 04:58:15;;;;;;;39.58;19.20;;;;;;;-146.07;100.00;70291.31;10427979;28;20037;-69
2023/04/11 05:03:16;;;;;;;35.60;19.45;;;;;;;-146.07;100.00;70291.31;10424294;28;20479;-69
2023/04/11 05:08:19;;;;;;;35.63;16.50;;;;;;;-146.07;100.00;70291.31;10408541;28;20029;-70
2023/04/11 05:13:20;;;;;;;38.58;17.60;;;;;;;-146.07;100.00;70291.31;10385488;28;20029;-70
2023/04/11 05:18:20;;;;;;;34.47;17.20;;;;;;;-146.07;100.00;70291.31;10393452;28;20043;-70
2023/04/11 05:23:21;;;;;;;24.23;14.18;;;;;;;-146.07;100.00;70291.31;10424633;28;20025;-69
2023/04/11 05:28:21;;;;;;;34.15;17.10;;;;;;;-146.07;100.00;70291.31;10409767;28;20036;-69
2023/04/11 05:33:23;;;;;;;34.50;17.55;;;;;;;-146.07;100.00;70291.31;10398870;28;20484;-70
2023/04/11 05:38:24;;;;;;;32.97;16.35;;;;;;;-146.07;100.00;70291.31;10415298;28;20028;-70
2023/04/11 05:43:24;;;;;;;27.73;14.88;;;;;;;-146.07;100.00;70291.31;10426806;28;20040;-69
2023/04/11 05:48:25;;;;;;;32.10;15.75;;;;;;;-146.07;100.00;70291.31;10407896;28;20402;-69
2023/04/11 05:53:25;;;;;;;30.10;15.23;;;;;;;-146.07;100.00;70291.31;10425934;28;20377;-69
2023/04/11 05:58:27;;;;;;;28.17;13.40;;;;;;;-146.07;100.00;70291.31;10426185;28;20526;-69
2023/04/11 06:03:28;;;;;;;32.42;14.25;;;;;;;-146.07;100.00;70291.31;10425840;28;20112;-69
2023/04/11 06:08:28;;;;;;;22.83;11.93;;;;;;;-146.07;100.00;70291.31;10406478;28;20033;-69
2023/04/11 06:13:29;;;;;;;24.50;13.00;;;;;;;-146.07;100.00;70291.31;10425993;28;20123;-70
2023/04/11 06:18:29;;;;;;;23.85;13.02;;;;;;;-146.07;100.00;70291.31;10424697;28;20045;-69
2023/04/11 06:23:30;;;;;;;25.73;12.90;;;;;;;-146.07;100.00;70291.31;10425471;28;20411;-70
2023/04/11 06:28:30;;;;;;;22.98;12.27;;;;;;;-146.07;100.00;70291.31;10407326;28;20058;-70
2023/04/11 06:33:32;;;;;;;20.92;11.60;;;;;;;-146.07;100.00;70291.31;10424900;28;20473;-70
2023/04/11 06:38:35;;;;;;;24.23;12.02;;;;;;;-146.07;100.00;70291.31;10425463;28;20537;-69
2023/04/11 06:43:35;;;;;;;22.35;11.43;;;;;;;-146.07;100.00;70291.31;10438405;28;20044;-70
2023/04/11 06:48:36;;;;;;;23.13;10.30;;;;;;;-146.07;100.00;70291.31;10406715;28;20509;-69
2023/04/11 06:53:36;;;;;;;18.23;9.00;;;;;;;-146.07;100.00;70291.31;10424404;28;20029;-69
2023/04/11 06:58:37;;;;;;;22.38;9.90;;;;;;;-146.07;100.00;70291.31;10425004;28;20084;-70
2023/04/11 07:03:37;;;;;;;19.83;10.32;;;;;;;-146.07;100.00;70291.31;10424446;28;20048;-69
2023/04/11 07:08:38;;;;;;;23.85;9.27;;;;;;;-146.07;100.00;70291.31;10432734;28;20126;-69
2023/04/11 07:13:38;;;;;;;16.40;9.70;;;;;;;-146.07;100.00;70291.31;10432983;28;20514;-68
2023/04/11 07:18:39;;;;;;;19.40;10.65;;;;;;;-146.07;100.00;70291.31;10432145;28;20044;-70
2023/04/11 07:23:41;;;;;;;18.42;10.32;;;;;;;-146.07;100.00;70291.31;10432755;28;20377;-69
2023/04/11 07:28:43;;;;;;;17.50;10.13;;;;;;;-146.07;100.00;70291.31;10432014;28;20464;-70
2023/04/11 07:33:44;;;;;;;15.05;8.88;;;;;;;-146.07;100.00;70291.31;10404658;28;20021;-71
2023/04/11 07:38:45;;;;;;;19.83;9.32;;;;;;;-146.07;100.00;70291.31;10390666;28;20040;-70
2023/04/11 07:43:46;;;;;;;17.67;9.50;;;;;;;-146.07;100.00;70291.31;10392815;28;20025;-73
2023/04/11 07:48:46;;;;;;;20.43;8.57;;;;;;;-146.07;100.00;70291.31;10431506;28;20083;-70
2023/04/11 07:53:46;;;;;;;15.77;8.40;;;;;;;-146.07;100.00;70291.31;10431457;28;21086;-70
2023/04/11 07:58:47;;;;;;;16.58;8.45;;;;;;;-146.07;100.00;70291.31;10431060;28;20346;-70
2023/04/11 08:03:47;;;;;;;15.57;7.88;;;;;;;-146.07;100.00;70291.31;10413174;28;20135;-69
2023/04/11 08:08:50;;;;;;;15.77;9.13;;;;;;;-146.07;100.00;70291.31;10430666;28;20409;-69
2023/04/11 08:13:50;;;;;;;14.02;8.30;;;;;;;-146.07;100.00;70291.31;10429834;28;20401;-70
2023/04/11 08:18:51;;;;;;;17.58;8.27;;;;;;;-146.07;100.00;70291.31;10415110;28;20102;-69
2023/04/11 08:23:51;;;;;;;25.95;9.48;;;;;;;-146.07;100.00;70291.31;10429730;28;20041;-71
2023/04/11 08:28:52;;;;;;;19.52;7.95;;;;;;;-146.07;100.00;70291.31;10429935;28;20459;-70
2023/04/11 08:33:52;;;;;;;12.40;6.93;;;;;;;-146.07;100.00;70291.31;10429528;28;20498;-70
2023/04/11 08:38:55;;;;;;;18.50;8.60;;;;;;;-146.07;100.00;70291.31;10429632;28;20101;-70
2023/04/11 08:43:56;;;;;;;15.20;8.05;;;;;;;-146.07;100.00;70291.31;10429207;28;20086;-70
2023/04/11 08:48:57;;;;;;;12.80;6.45;;;;;;;-146.07;100.00;70291.31;10442845;28;20517;-70
2023/04/11 08:54:03;;;;;;;11.90;6.70;;;;;;;-146.07;100.00;70291.31;10429191;28;20060;-69
2023/04/11 08:59:04;;;;;;;13.70;7.55;;;;;;;-146.07;100.00;70291.31;10428449;28;20055;-70
2023/04/11 09:04:05;;;;;;;12.20;6.47;;;;;;;-146.07;100.00;70291.31;10428234;28;20040;-68
2023/04/11 09:09:05;;;;;;;11.70;6.65;;;;;;;-146.07;100.00;70291.31;10428212;28;20033;-69
2023/04/11 09:14:10;;;;;;;11.63;6.67;;;;;;;-146.07;100.00;70291.31;10427998;28;20051;-68
2023/04/11 09:19:23;;;;;;;14.63;7.78;;;;;;;-146.07;100.00;70291.31;10427636;28;20889;-69
2023/04/11 09:24:25;;;;;;;13.07;7.90;;;;;;;-146.07;100.00;70291.31;10427956;28;20037;-70
2023/04/11 09:29:36;;;;;;;12.32;7.40;;;;;;;-146.07;100.00;70291.31;10426920;28;20088;-70
2023/04/11 09:34:36;;;;;;;11.77;7.30;;;;;;;-146.07;100.00;70291.31;10425966;28;20068;-70
2023/04/11 09:39:37;;;;;;;12.43;7.23;;;;;;;-146.07;100.00;70291.31;10427157;28;20116;-70
2023/04/11 09:44:37;;;;;;;11.63;6.72;;;;;;;-146.07;100.00;70291.31;10426818;28;20287;-70
2023/04/11 09:49:38;;;;;;;20.77;8.73;;;;;;;-146.07;100.00;70291.31;10426515;28;20732;-70
2023/04/11 09:54:39;;;;;;;13.20;9.02;;;;;;;-146.07;100.00;70291.31;10426429;28;20025;-70
2023/04/11 09:59:40;;;;;;;13.77;8.15;;;;;;;-146.07;100.00;70291.31;10426112;28;20407;-70
2023/04/11 10:04:42;;;;;;;12.90;7.70;;;;;;;-146.07;100.00;70291.31;10426312;28;20064;-70
2023/04/11 10:09:44;;;;;;;17.00;8.00;;;;;;;-146.07;100.00;70291.31;10426351;28;20086;-70
2023/04/11 10:14:45;;;;;;;13.23;7.93;;;;;;;-146.07;100.00;70291.31;10425509;28;20025;-70
2023/04/11 10:19:46;;;;;;;13.57;9.00;;;;;;;-146.07;100.00;70291.31;10425558;28;20388;-70
2023/04/11 10:25:18;;;;;;;14.13;8.05;;;;;;;-146.07;100.00;70291.31;10425703;28;20707;-69
2023/04/11 10:30:38;;;;;;;12.20;7.30;;;;;;;-146.07;100.00;70291.31;10448943;28;20056;-71
2023/04/11 10:36:02;;;;;;;14.10;8.50;;;;;;;-146.07;100.00;70291.31;10467105;28;20123;-71
2023/04/11 10:41:24;;;;;;;13.77;7.55;;;;;;;-146.07;100.00;70291.31;10430391;28;20090;-71
2023/04/11 10:46:25;;;;;;;10.57;6.57;;;;;;;-146.07;100.00;70291.31;10425128;28;20032;-71
2023/04/11 10:51:28;;;;;;;11.10;5.50;;;;;;;19.29;41.75;94713.59;10424656;28;20029;-71
2023/04/11 10:56:51;;;;;;;9.90;4.95;;;;;;;24.40;38.41;94122.13;10424620;28;20447;-71
2023/04/11 11:01:54;;;;;;;7.55;4.35;;;;;;;24.40;38.41;94122.13;10424319;28;20426;-70
2023/04/11 11:06:58;;;;;;;20.98;5.57;;;;;;;24.44;31.98;94105.69;10424593;28;20368;-70
2023/04/11 11:12:05;;;;;;;35.13;7.72;;;;;;;22.77;37.15;94099.16;10424332;28;20017;-71
2023/04/11 11:17:07;;;;;;;133.40;22.60;;;;;;;23.16;36.53;94082.56;10422932;28;20060;-70
2023/04/11 11:22:14;;;;;;;43.78;9.70;;;;;;;21.79;35.72;94083.72;10406098;28;20065;-70
2023/04/11 11:27:22;;;;;;;17.70;6.57;;;;;;;19.35;38.24;94086.69;10424109;28;20526;-69
2023/04/11 11:32:27;;;;;;;12.35;6.50;;;;;;;18.25;41.70;94098.06;10424171;28;20399;-70
2023/04/11 11:37:27;;;;;;;10.52;5.70;;;;;;;16.98;44.92;94080.28;10403675;28;20029;-70
2023/04/11 11:42:28;;;;;;;11.30;6.78;;;;;;;16.91;45.41;94073.47;10382889;28;20034;-71
2023/04/11 11:47:28;;;;;;;10.85;6.28;;;;;;;16.72;47.48;94062.25;10420111;28;20074;-71
2023/04/11 11:52:47;;;;;;;13.57;7.22;;;;;;;16.72;47.48;94062.25;10428059;28;20025;-71
2023/04/11 11:57:49;;;;;;;11.48;6.78;;;;;;;15.71;51.07;94055.41;10412665;28;20025;-70
2023/04/11 12:02:54;;;;;;;12.60;6.75;;;;;;;14.67;53.88;94051.63;10430429;28;20120;-71
2023/04/11 12:07:58;;;;;;;10.32;5.70;;;;;;;-146.07;100.00;70291.31;10430945;28;20036;-71
2023/04/11 12:12:58;;;;;;;14.07;7.18;;;;;;;-146.07;100.00;70291.31;10412159;28;20369;-71
2023/04/11 12:17:59;;;;;;;14.00;6.55;;;;;;;-146.07;100.00;70291.31;10405550;28;20053;-70
2023/04/11 12:22:59;;;;;;;14.52;6.45;;;;;;;-146.07;100.00;70291.31;10403484;28;20061;-70
2023/04/11 12:28:00;;;;;;;13.70;6.75;;;;;;;-146.07;100.00;70291.31;10409026;28;20033;-70
2023/04/11 12:33:00;;;;;;;9.85;6.40;;;;;;;-146.07;100.00;70291.31;10400644;28;20029;-70
2023/04/11 12:38:01;;;;;;;11.73;5.75;;;;;;;-146.07;100.00;70291.31;10402727;28;20492;-71
2023/04/11 12:43:01;;;;;;;11.07;6.43;;;;;;;-146.07;100.00;70291.31;10397391;28;20095;-71
2023/04/11 12:48:02;;;;;;;10.15;6.55;;;;;;;-146.07;100.00;70291.31;10395076;28;20351;-70
2023/04/11 12:53:02;;;;;;;9.55;6.13;;;;;;;-146.07;100.00;70291.31;10400997;28;20018;-70
2023/04/11 12:58:03;;;;;;;12.88;6.80;;;;;;;-146.07;100.00;70291.31;10406122;28;20036;-71
2023/04/11 13:03:03;;;;;;;13.45;7.30;;;;;;;-146.07;100.00;70291.31;10407965;28;20048;-71
2023/04/11 13:08:04;;;;;;;13.07;6.18;;;;;;;-146.07;100.00;70291.31;10406397;28;20823;-70
2023/04/11 13:13:04;;;;;;;8.97;5.77;;;;;;;-146.07;100.00;70291.31;10402353;28;20022;-71
2023/04/11 13:18:04;;;;;;;8.53;5.77;;;;;;;-146.07;100.00;70291.31;10403678;28;20128;-69
2023/04/11 13:23:05;;;;;;;11.90;6.60;;;;;;;-146.07;100.00;70291.31;10399875;28;20280;-70
2023/04/11 13:28:06;;;;;;;8.95;5.95;;;;;;;-146.07;100.00;70291.31;10400580;28;20782;-74
2023/04/11 13:33:06;;;;;;;13.18;7.22;;;;;;;-146.07;100.00;70291.31;10402378;28;20127;-73
2023/04/11 13:38:07;;;;;;;10.53;6.50;;;;;;;-146.07;100.00;70291.31;10401746;28;20039;-72
2023/04/11 13:43:08;;;;;;;12.40;6.63;;;;;;;-146.07;100.00;70291.31;10405362;28;20666;-74
2023/04/11 13:48:09;;;;;;;11.57;6.97;;;;;;;-146.07;100.00;70291.31;10401902;28;20482;-73
2023/04/11 13:53:09;;;;;;;12.43;7.25;;;;;;;-146.07;100.00;70291.31;10398742;28;20029;-73
2023/04/11 13:58:10;;;;;;;12.85;7.03;;;;;;;-146.07;100.00;70291.31;10400734;28;20379;-73
2023/04/11 14:03:11;;;;;;;13.30;7.32;;;;;;;-146.07;100.00;70291.31;10392158;28;20064;-74
2023/04/11 14:08:12;;;;;;;18.13;7.97;;;;;;;-146.07;100.00;70291.31;10399810;28;20029;-72
2023/04/11 14:13:13;;;;;;;17.75;8.70;;;;;;;-146.07;100.00;70291.31;10402947;28;20561;-75
2023/04/11 14:18:13;;;;;;;11.60;6.97;;;;;;;-146.07;100.00;70291.31;10404222;28;20137;-73
2023/04/11 14:23:15;;;;;;;13.17;7.43;;;;;;;-146.07;100.00;70291.31;10392886;28;20299;-73
2023/04/11 14:28:17;;;;;;;12.32;7.60;;;;;;;-146.07;100.00;70291.31;10405034;28;20287;-70
2023/04/11 14:33:17;;;;;;;14.95;8.50;;;;;;;-146.07;100.00;70291.31;10399430;28;20029;-71
2023/04/11 14:38:18;;;;;;;14.50;8.38;;;;;;;-146.07;100.00;70291.31;10423523;28;20025;-72
2023/04/11 14:43:18;;;;;;;11.27;7.78;;;;;;;-146.07;100.00;70291.31;10424843;28;20025;-73
2023/04/11 14:48:19;;;;;;;11.50;7.73;;;;;;;-146.07;100.00;70291.31;10424811;28;20488;-73
2023/04/11 14:53:20;;;;;;;20.25;8.63;;;;;;;-146.07;100.00;70291.31;10424409;28;20040;-73
2023/04/11 14:58:21;;;;;;;14.23;8.68;;;;;;;-146.07;100.00;70291.31;10416653;28;20037;-73
2023/04/11 15:03:21;;;;;;;18.35;9.75;;;;;;;-146.07;100.00;70291.31;10405879;28;20496;-72
2023/04/11 15:08:22;;;;;;;16.93;10.53;;;;;;;-146.07;100.00;70291.31;10423959;28;20028;-72
2023/04/11 15:13:22;;;;;;;57.63;16.17;;;;;;;-146.07;100.00;70291.31;10415134;28;20264;-72
2023/04/11 15:18:26;;;;;;;17.00;10.13;;;;;;;-146.07;100.00;70291.31;10395812;28;20056;-73
2023/04/11 15:23:27;;;;;;;14.60;9.52;;;;;;;-146.07;100.00;70291.31;10423815;28;20037;-73
2023/04/11 15:28:33;;;;;;;20.02;9.55;;;;;;;-146.07;100.00;70291.31;10429464;28;20024;-71
2023/04/11 15:33:34;;;;;;;17.20;10.05;;;;;;;-146.07;100.00;70291.31;10431773;28;20017;-71
2023/04/11 15:38:35;;;;;;;16.13;9.32;;;;;;;-146.07;100.00;70291.31;10398205;28;20037;-72
2023/04/11 15:43:36;;;;;;;19.83;9.63;;;;;;;-146.07;100.00;70291.31;10396698;28;20025;-72
2023/04/11 15:48:36;;;;;;;19.73;10.93;;;;;;;-146.07;100.00;70291.31;10430437;28;20527;-72
2023/04/11 15:53:36;;;;;;;18.20;11.83;;;;;;;-146.07;100.00;70291.31;10431368;28;20089;-71
2023/04/11 15:58:37;;;;;;;16.30;8.25;;;;;;;-146.07;100.00;70291.31;10431189;28;20032;-72
2023/04/11 16:03:37;;;;;;;20.97;11.37;;;;;;;-146.07;100.00;70291.31;10430379;28;20116;-73
2023/04/11 16:08:38;;;;;;;16.70;9.47;;;;;;;-146.07;100.00;70291.31;10431059;28;20268;-72
2023/04/11 16:13:39;;;;;;;18.35;10.13;;;;;;;-146.07;100.00;70291.31;10430056;28;20259;-72
2023/04/11 16:18:39;;;;;;;17.75;11.05;;;;;;;-146.07;100.00;70291.31;10430137;28;20053;-71
2023/04/11 16:23:41;;;;;;;17.25;10.48;;;;;;;-146.07;100.00;70291.31;10429882;28;20040;-71
2023/04/11 16:28:41;;;;;;;15.13;10.35;;;;;;;-146.07;100.00;70291.31;10398764;28;20515;-71
2023/04/11 16:33:41;;;;;;;19.23;10.90;;;;;;;-146.07;100.00;70291.31;10408722;28;20025;-72
2023/04/11 16:38:42;;;;;;;20.15;10.60;;;;;;;-146.07;100.00;70291.31;10428597;28;20263;-73
2023/04/11 16:43:43;;;;;;;17.73;10.40;;;;;;;-146.07;100.00;70291.31;10429117;28;20033;-73
2023/04/11 16:48:43;;;;;;;17.67;10.15;;;;;;;-146.07;100.00;70291.31;10423129;28;20295;-73
2023/04/11 16:53:44;;;;;;;20.42;10.13;;;;;;;-146.07;100.00;70291.31;10397535;28;20013;-72
2023/04/11 16:58:45;;;;;;;17.90;10.30;;;;;;;-146.07;100.00;70291.31;10428594;28;20021;-73
2023/04/11 17:03:46;;;;;;;19.45;10.68;;;;;;;-146.07;100.00;70291.31;10428513;28;20029;-72
2023/04/11 17:08:46;;;;;;;20.48;11.35;;;;;;;-146.07;100.00;70291.31;10428245;28;20028;-72
2023/04/11 17:13:48;;;;;;;17.33;9.77;;;;;;;-146.07;100.00;70291.31;10428678;28;20084;-73
2023/04/11 17:18:48;;;;;;;18.30;11.18;;;;;;;-146.07;100.00;70291.31;10428815;28;20487;-73
2023/04/11 17:23:49;;;;;;;26.17;14.50;;;;;;;-146.07;100.00;70291.31;10418738;28;20117;-70
2023/04/11 17:28:49;;;;;;;17.08;9.93;;;;;;;-146.07;100.00;70291.31;10403298;28;20904;-73
2023/04/11 17:33:50;;;;;;;16.70;9.57;;;;;;;-146.07;100.00;70291.31;10425721;28;20108;-71
2023/04/11 17:38:53;;;;;;;20.77;10.75;;;;;;;-146.07;100.00;70291.31;10425868;28;20028;-73
2023/04/11 17:43:55;;;;;;;19.60;11.65;;;;;;;-146.07;100.00;70291.31;10408921;28;20033;-72
2023/04/11 17:48:55;;;;;;;19.80;10.65;;;;;;;-146.07;100.00;70291.31;10423375;28;20108;-74
2023/04/11 17:53:56;;;;;;;18.13;10.27;;;;;;;-146.07;100.00;70291.31;10398157;28;20017;-75
2023/04/11 17:58:56;;;;;;;19.45;10.10;;;;;;;-146.07;100.00;70291.31;10410637;28;20548;-75
2023/04/11 18:03:58;;;;;;;19.05;10.40;;;;;;;-146.07;100.00;70291.31;10422826;28;20437;-74
2023/04/11 18:09:00;;;;;;;21.23;10.45;;;;;;;-146.07;100.00;70291.31;10429911;28;20112;-75
2023/04/11 18:14:01;;;;;;;21.67;10.57;;;;;;;-146.07;100.00;70291.31;10417144;28;20017;-75
2023/04/11 18:19:01;;;;;;;17.55;9.73;;;;;;;-146.07;100.00;70291.31;10428525;28;20040;-74
2023/04/11 18:24:02;;;;;;;17.50;9.30;;;;;;;-146.07;100.00;70291.31;10408067;28;20036;-71
2023/04/11 18:29:04;;;;;;;21.23;10.40;;;;;;;-146.07;100.00;70291.31;10422081;28;20068;-73
2023/04/11 18:34:04;;;;;;;15.57;9.82;;;;;;;-146.07;100.00;70291.31;10425136;28;20021;-75
2023/04/11 18:39:04;;;;;;;15.80;9.83;;;;;;;-146.07;100.00;70291.31;10429077;28;20021;-81
2023/04/11 18:44:05;;;;;;;16.20;9.57;;;;;;;-146.07;100.00;70291.31;10420806;28;20655;-75
2023/04/11 18:49:06;;;;;;;17.55;10.43;;;;;;;-146.07;100.00;70291.31;10427776;28;20036;-73
2023/04/11 18:54:06;;;;;;;17.50;10.18;;;;;;;-146.07;100.00;70291.31;10412812;28;20028;-74
2023/04/11 18:59:07;;;;;;;17.47;10.23;;;;;;;-146.07;100.00;70291.31;10418135;28;20032;-75
2023/04/11 19:04:08;;;;;;;21.15;11.30;;;;;;;-146.07;100.00;70291.31;10427221;28;20286;-73
2023/04/11 19:09:09;;;;;;;17.60;9.68;;;;;;;-146.07;100.00;70291.31;10418827;28;20408;-73
2023/04/11 19:14:09;;;;;;;16.58;9.50;;;;;;;-146.07;100.00;70291.31;10431271;28;20025;-72
2023/04/11 19:19:10;;;;;;;14.93;9.48;;;;;;;-146.07;100.00;70291.31;10418262;28;20045;-71
2023/04/11 19:24:10;;;;;;;12.85;7.85;;;;;;;-146.07;100.00;70291.31;10432050;28;20067;-72
2023/04/11 19:29:11;;;;;;;16.02;9.20;;;;;;;-146.07;100.00;70291.31;10418496;28;20051;-72
2023/04/11 19:34:11;;;;;;;12.73;7.40;;;;;;;-146.07;100.00;70291.31;10423355;28;20029;-72
2023/04/11 19:39:12;;;;;;;13.73;8.02;;;;;;;-146.07;100.00;70291.31;10425931;28;20033;-72
2023/04/11 19:44:12;;;;;;;18.45;9.60;;;;;;;-146.07;100.00;70291.31;10427122;28;20126;-71
2023/04/11 19:49:13;;;;;;;14.98;7.60;;;;;;;-146.07;100.00;70291.31;10409768;28;20674;-72
2023/04/11 19:54:13;;;;;;;15.40;8.85;;;;;;;-146.07;100.00;70291.31;10420008;28;20029;-72
2023/04/11 19:59:14;;;;;;;17.13;8.82;;;;;;;-146.07;100.00;70291.31;10425371;28;20033;-72
2023/04/11 20:04:16;;;;;;;15.20;8.57;;;;;;;-146.07;100.00;70291.31;10423613;28;20040;-72
2023/04/11 20:09:16;;;;;;;15.02;8.32;;;;;;;-146.07;100.00;70291.31;10426485;28;20040;-71
2023/04/11 20:14:17;;;;;;;13.18;7.97;;;;;;;-146.07;100.00;70291.31;10418383;28;20459;-71
2023/04/11 20:19:19;;;;;;;13.23;9.02;;;;;;;-146.07;100.00;70291.31;10387532;28;20053;-71
2023/04/11 20:24:20;;;;;;;18.40;8.15;;;;;;;-146.07;100.00;70291.31;10421949;28;20075;-69
2023/04/11 20:29:23;;;;;;;14.07;7.65;;;;;;;-146.07;100.00;70291.31;10406868;28;20039;-70
2023/04/11 20:34:24;;;;;;;13.43;8.02;;;;;;;-146.07;100.00;70291.31;10424060;28;20036;-69
2023/04/11 20:39:24;;;;;;;13.43;7.28;;;;;;;-146.07;100.00;70291.31;10422231;28;20033;-70
2023/04/11 20:44:26;;;;;;;15.32;8.10;;;;;;;-146.07;100.00;70291.31;10405852;28;20031;-69
2023/04/11 20:49:27;;;;;;;17.38;8.25;;;;;;;-146.07;100.00;70291.31;10417553;28;20037;-70
2023/04/11 20:54:27;;;;;;;13.48;8.02;;;;;;;-146.07;100.00;70291.31;10403775;28;20040;-69
2023/04/11 20:59:28;;;;;;;12.75;7.20;;;;;;;-146.07;100.00;70291.31;10417235;28;20618;-69
2023/04/11 21:04:29;;;;;;;12.90;7.10;;;;;;;-146.07;100.00;70291.31;10425018;28;20025;-70
2023/04/11 21:09:30;;;;;;;18.35;8.20;;;;;;;-146.07;100.00;70291.31;10425367;28;20055;-68
2023/04/11 21:14:31;;;;;;;13.27;8.13;;;;;;;-146.07;100.00;70291.31;10406503;28;20064;-70
2023/04/11 21:19:36;;;;;;;14.50;7.82;;;;;;;-146.07;100.00;70291.31;10424886;28;20128;-69
2023/04/11 21:24:36;;;;;;;13.32;7.75;;;;;;;-146.07;100.00;70291.31;10423798;28;20423;-69
2023/04/11 21:29:37;;;;;;;12.50;8.15;;;;;;;-146.07;100.00;70291.31;10424191;28;20820;-69
2023/04/11 21:34:37;;;;;;;14.88;7.55;;;;;;;-146.07;100.00;70291.31;10422713;28;20459;-69
2023/04/11 21:39:37;;;;;;;12.27;7.23;;;;;;;-146.07;100.00;70291.31;10424641;28;20032;-70
2023/04/11 21:44:38;;;;;;;11.57;6.70;;;;;;;-146.07;100.00;70291.31;10423500;28;20292;-68
2023/04/11 21:49:38;;;;;;;15.77;7.68;;;;;;;-146.07;100.00;70291.31;10405730;28;20056;-68
2023/04/11 21:54:42;;;;;;;12.80;7.35;;;;;;;-146.07;100.00;70291.31;10423765;28;20059;-70
2023/04/11 21:59:42;;;;;;;12.00;6.88;;;;;;;-146.07;100.00;70291.31;10422907;28;20029;-70
2023/04/11 22:04:44;;;;;;;12.70;8.23;;;;;;;-146.07;100.00;70291.31;10423198;28;20440;-70
2023/04/11 22:09:45;;;;;;;13.30;7.75;;;;;;;-146.07;100.00;70291.31;10404423;28;20447;-69
2023/04/11 22:14:51;;;;;;;14.73;7.43;;;;;;;-146.07;100.00;70291.31;10422724;28;20040;-70